createdAt,value
2022-08-29T00:01:29.741Z,3.45
2022-08-29T00:06:31.195Z,3.45
2022-08-29T00:11:32.664Z,3.65
2022-08-29T00:16:34.780Z,3.42
2022-08-29T00:21:36.269Z,3.55
2022-08-29T00:26:37.938Z,3.33
2022-08-29T00:31:39.424Z,3.55
2022-08-29T00:36:41.978Z,3.67
2022-08-29T00:41:50.467Z,3.05
2022-08-29T00:46:54.215Z,3.97
2022-08-29T00:51:56.977Z,3.33
2022-08-29T00:56:59.183Z,2.63
2022-08-29T01:02:03.940Z,2.95
2022-08-29T01:07:06.253Z,2.28
2022-08-29T01:12:17.290Z,2.30
2022-08-29T01:17:22.345Z,2.53
2022-08-29T01:22:23.800Z,2.25
2022-08-29T01:27:28.812Z,2.17
2022-08-29T01:32:31.184Z,2.05
2022-08-29T01:37:34.020Z,2.00
2022-08-29T01:42:37.306Z,2.10
2022-08-29T01:47:39.205Z,2.40
2022-08-29T01:52:41.511Z,2.33
2022-08-29T01:57:42.959Z,2.55
2022-08-29T02:02:44.553Z,2.28
2022-08-29T02:07:45.970Z,2.10
2022-08-29T02:12:47.409Z,2.25
2022-08-29T02:17:48.998Z,2.58
2022-08-29T02:22:50.467Z,2.38
2022-08-29T02:27:52.371Z,2.20
2022-08-29T02:32:54.123Z,2.50
2022-08-29T02:37:55.791Z,2.40
2022-08-29T02:42:57.208Z,2.60
2022-08-29T02:47:59.155Z,2.20
2022-08-29T02:53:00.618Z,1.90
2022-08-29T02:58:02.028Z,1.92
2022-08-29T03:03:03.822Z,3.00
2022-08-29T03:08:06.899Z,2.53
2022-08-29T03:13:08.755Z,2.45
2022-08-29T03:18:10.310Z,2.90
2022-08-29T03:23:12.271Z,2.60
2022-08-29T03:28:13.996Z,2.80
2022-08-29T03:33:15.509Z,2.35
2022-08-29T03:38:17.523Z,2.40
2022-08-29T03:43:21.767Z,2.30
2022-08-29T03:48:23.190Z,2.50
2022-08-29T03:53:24.705Z,2.45
2022-08-29T03:58:26.118Z,2.90
2022-08-29T04:03:30.959Z,2.30
2022-08-29T04:08:32.697Z,2.60
2022-08-29T04:13:34.595Z,2.33
2022-08-29T04:18:36.324Z,2.58
2022-08-29T04:23:38.273Z,2.30
2022-08-29T04:28:39.905Z,2.40
2022-08-29T04:33:41.492Z,2.30
2022-08-29T04:38:43.006Z,2.58
2022-08-29T04:43:48.394Z,2.92
2022-08-29T04:48:49.850Z,2.42
2022-08-29T04:53:51.947Z,2.20
2022-08-29T04:58:53.430Z,2.30
2022-08-29T05:03:55.375Z,2.50
2022-08-29T05:08:59.233Z,2.65
2022-08-29T05:14:02.623Z,2.75
2022-08-29T05:19:05.955Z,2.53
2022-08-29T05:24:08.661Z,3.08
2022-08-29T05:29:11.038Z,2.15
2022-08-29T05:34:32.394Z,2.10
2022-08-29T05:39:35.048Z,2.25
2022-08-29T05:44:36.623Z,2.20
2022-08-29T05:49:39.262Z,2.42
2022-08-29T05:54:41.828Z,2.33
2022-08-29T05:59:43.314Z,2.20
2022-08-29T06:04:45.880Z,2.33
2022-08-29T06:09:47.736Z,2.33
2022-08-29T06:14:50.082Z,2.50
2022-08-29T06:19:52.375Z,2.28
2022-08-29T06:24:57.630Z,2.50
2022-08-29T06:30:01.897Z,2.88
2022-08-29T06:35:03.790Z,2.70
2022-08-29T06:40:05.425Z,2.30
2022-08-29T06:45:09.460Z,2.13
2022-08-29T06:50:10.943Z,2.63
2022-08-29T06:55:12.973Z,2.70
2022-08-29T07:00:21.772Z,2.47
2022-08-29T07:05:24.558Z,2.63
2022-08-29T07:10:26.266Z,2.42
2022-08-29T07:15:27.887Z,2.10
2022-08-29T07:20:29.358Z,2.20
2022-08-29T07:25:30.783Z,2.90
2022-08-29T07:30:32.946Z,1.88
2022-08-29T07:35:34.423Z,2.22
2022-08-29T07:40:36.014Z,2.00
2022-08-29T07:45:40.688Z,1.85
2022-08-29T07:50:42.346Z,1.83
2022-08-29T07:55:43.951Z,1.90
2022-08-29T08:00:45.466Z,1.70
2022-08-29T08:05:46.926Z,1.90
2022-08-29T08:10:52.184Z,2.03
2022-08-29T08:15:55.468Z,1.70
2022-08-29T08:20:57.138Z,1.83
2022-08-29T08:25:58.679Z,1.75
2022-08-29T08:31:05.661Z,1.88
2022-08-29T08:36:13.537Z,1.70
2022-08-29T08:41:27.019Z,1.88
2022-08-29T08:46:28.912Z,1.70
2022-08-29T08:51:33.390Z,2.00
2022-08-29T08:56:37.083Z,1.70
2022-08-29T09:01:43.546Z,1.75
2022-08-29T09:07:03.661Z,1.70
2022-08-29T09:12:15.559Z,2.53
2022-08-29T09:17:20.858Z,2.20
2022-08-29T09:22:26.740Z,2.40
2022-08-29T09:27:35.546Z,2.08
2022-08-29T09:32:51.677Z,2.10
2022-08-29T09:37:58.308Z,2.10
2022-08-29T09:43:03.217Z,1.92
2022-08-29T09:48:09.316Z,2.30
2022-08-29T09:53:20.355Z,2.08
2022-08-29T09:58:29.178Z,1.90
2022-08-29T10:03:33.331Z,2.85
2022-08-29T10:08:35.973Z,2.10
2022-08-29T10:13:47.337Z,1.83
2022-08-29T10:18:50.870Z,2.35
2022-08-29T10:23:52.248Z,2.50
2022-08-29T10:29:07.417Z,2.10
2022-08-29T10:34:21.108Z,2.15
2022-08-29T10:39:28.813Z,1.90
2022-08-29T10:44:45.469Z,2.30
2022-08-29T10:49:46.909Z,1.70
2022-08-29T10:55:00.333Z,1.70
2022-08-29T11:00:28.374Z,2.10
2022-08-29T11:05:33.315Z,1.50
2022-08-29T11:10:40.686Z,1.58
2022-08-29T11:15:45.171Z,1.70
2022-08-29T11:20:56.552Z,1.60
2022-08-29T11:25:59.093Z,1.77
2022-08-29T11:31:08.669Z,1.70
2022-08-29T11:36:22.421Z,1.73
2022-08-29T11:41:29.595Z,1.67
2022-08-29T11:46:39.576Z,1.70
2022-08-29T11:51:41.536Z,1.67
2022-08-29T11:56:42.992Z,1.88
2022-08-29T12:01:44.513Z,1.58
2022-08-29T12:07:01.275Z,1.65
2022-08-29T12:12:04.023Z,1.60
2022-08-29T12:17:31.872Z,1.63
2022-08-29T12:22:59.893Z,2.03
2022-08-29T12:28:31.179Z,1.80
2022-08-29T12:33:51.143Z,1.63
2022-08-29T12:39:08.173Z,1.60
2022-08-29T12:44:12.200Z,1.60
2022-08-29T12:49:26.911Z,1.70
2022-08-29T12:54:30.303Z,1.80
2022-08-29T12:59:34.351Z,1.98
2022-08-29T13:04:36.717Z,1.60
2022-08-29T13:09:38.118Z,1.85
2022-08-29T13:15:06.124Z,1.85
2022-08-29T13:20:26.655Z,1.90
2022-08-29T13:25:28.184Z,1.70
2022-08-29T13:30:29.715Z,2.13
2022-08-29T13:35:32.905Z,2.20
2022-08-29T13:40:41.858Z,2.00
2022-08-29T13:45:43.746Z,2.72
2022-08-29T13:50:45.207Z,2.05
2022-08-29T13:55:46.744Z,2.70
2022-08-29T14:00:48.192Z,2.08
2022-08-29T14:05:50.549Z,2.50
2022-08-29T14:10:52.053Z,2.05
2022-08-29T14:15:53.606Z,2.58
2022-08-29T14:20:55.269Z,2.92
2022-08-29T14:25:56.709Z,2.35
2022-08-29T14:30:58.202Z,2.47
2022-08-29T14:35:59.747Z,2.85
2022-08-29T14:41:03.194Z,3.13
2022-08-29T14:46:04.741Z,2.90
2022-08-29T14:51:06.355Z,3.00
2022-08-29T14:56:07.788Z,2.20
2022-08-29T15:01:09.791Z,2.75
2022-08-29T15:06:11.282Z,2.53
2022-08-29T15:11:13.588Z,2.83
2022-08-29T15:16:15.144Z,2.97
2022-08-29T15:21:16.996Z,2.78
2022-08-29T15:26:18.632Z,3.13
2022-08-29T15:31:20.442Z,2.78
2022-08-29T15:36:21.970Z,2.40
2022-08-29T15:41:23.416Z,3.08
2022-08-29T15:46:26.755Z,2.55
2022-08-29T15:51:28.443Z,2.53
2022-08-29T15:56:35.118Z,3.10
2022-08-29T16:01:41.760Z,3.35
2022-08-29T16:06:44.390Z,3.00
2022-08-29T16:11:47.293Z,2.70
2022-08-29T16:16:49.351Z,2.47
2022-08-29T16:21:50.943Z,2.33
2022-08-29T16:26:52.547Z,2.47
2022-08-29T16:31:57.806Z,2.60
2022-08-29T16:37:00.345Z,2.65
2022-08-29T16:42:01.794Z,2.60
2022-08-29T16:47:03.260Z,2.60
2022-08-29T16:52:05.353Z,2.75
2022-08-29T16:57:06.792Z,2.70
2022-08-29T17:02:08.628Z,2.50
2022-08-29T17:07:10.076Z,2.60
2022-08-29T17:12:12.591Z,2.60
2022-08-29T17:17:14.495Z,3.10
2022-08-29T17:22:16.991Z,2.60
2022-08-29T17:27:21.470Z,2.35
2022-08-29T17:32:23.410Z,2.33
2022-08-29T17:37:24.988Z,2.90
2022-08-29T17:42:26.460Z,2.60
2022-08-29T17:47:28.597Z,2.72
2022-08-29T17:52:30.330Z,2.55
2022-08-29T17:57:33.142Z,2.47
2022-08-29T18:02:35.196Z,2.40
2022-08-29T18:07:39.294Z,2.17
2022-08-29T18:12:41.437Z,2.20
2022-08-29T18:17:44.890Z,2.28
2022-08-29T18:22:46.837Z,2.67
2022-08-29T18:27:48.377Z,2.30
2022-08-29T18:32:50.444Z,2.25
2022-08-29T18:37:51.977Z,2.38
2022-08-29T18:42:53.422Z,2.22
2022-08-29T18:47:54.961Z,1.95
2022-08-29T18:52:56.671Z,2.10
2022-08-29T18:57:58.247Z,2.03
2022-08-29T19:03:00.589Z,2.20
2022-08-29T19:08:02.211Z,2.10
2022-08-29T19:13:04.306Z,2.20
2022-08-29T19:18:06.924Z,1.90
2022-08-29T19:23:08.953Z,2.17
2022-08-29T19:28:10.882Z,2.00
2022-08-29T19:33:12.433Z,2.20
2022-08-29T19:38:14.181Z,2.70
2022-08-29T19:43:16.134Z,2.20
2022-08-29T19:48:19.117Z,2.55
2022-08-29T19:53:26.021Z,2.15
2022-08-29T19:58:31.806Z,1.98
2022-08-29T20:03:34.487Z,1.90
2022-08-29T20:08:36.975Z,2.30
2022-08-29T20:13:39.924Z,2.00
2022-08-29T20:18:42.058Z,2.20
2022-08-29T20:23:49.090Z,2.03
2022-08-29T20:28:52.380Z,1.60
2022-08-29T20:33:53.884Z,2.08
2022-08-29T20:38:55.437Z,2.10
2022-08-29T20:43:58.359Z,1.80
2022-08-29T20:49:00.831Z,1.70
2022-08-29T20:54:02.254Z,1.75
2022-08-29T20:59:04.092Z,1.65
2022-08-29T21:04:24.790Z,1.60
2022-08-29T21:09:26.959Z,1.85
2022-08-29T21:14:28.933Z,1.60
2022-08-29T21:19:30.429Z,1.70
2022-08-29T21:24:31.922Z,2.00
2022-08-29T21:29:33.376Z,1.60
2022-08-29T21:34:34.837Z,2.13
2022-08-29T21:39:36.324Z,1.92
2022-08-29T21:44:37.760Z,1.90
2022-08-29T21:49:39.259Z,1.90
2022-08-29T21:54:40.820Z,1.92
2022-08-29T21:59:42.249Z,1.80
2022-08-29T22:04:43.659Z,1.70
2022-08-29T22:09:45.100Z,1.65
2022-08-29T22:15:05.438Z,1.60
2022-08-29T22:20:07.116Z,1.70
2022-08-29T22:25:08.673Z,1.58
2022-08-29T22:30:11.370Z,1.50
2022-08-29T22:35:13.719Z,1.35
2022-08-29T22:40:17.601Z,1.60
2022-08-29T22:45:19.382Z,2.28
2022-08-29T22:50:22.575Z,1.88
2022-08-29T23:00:26.253Z,2.53
2022-08-29T23:05:27.703Z,2.22
2022-08-29T23:10:29.187Z,1.98
2022-08-29T23:15:30.633Z,2.00
2022-08-29T23:20:34.455Z,2.00
2022-08-29T23:25:36.613Z,2.13
2022-08-29T23:30:38.059Z,1.95
2022-08-29T23:35:39.576Z,1.90
2022-08-29T23:40:41.045Z,2.10
2022-08-29T23:45:42.790Z,1.77
2022-08-29T23:50:44.545Z,2.25
2022-08-29T23:55:50.593Z,2.10
